TimeAST,TemperatureF,Dew PointF,Humidity,Sea Level PressureIn,VisibilityMPH,Wind Direction,Wind SpeedMPH,Gust SpeedMPH,PrecipitationIn,Events,Conditions,WindDirDegrees,DateUTC
12:00 AM,12.2,10.4,92,30.68,12.0,ENE,3.5,-,N/A,,Mostly Cloudy,60,2012-12-02 04:00:00
1:00 AM,14.0,10.4,86,30.67,12.0,ENE,2.3,-,N/A,,Overcast,70,2012-12-02 05:00:00
2:00 AM,15,11,77,30.68,12,NE,2.3,,,,Overcast,50,2012-12-02 06:00:00
2:00 AM,15.8,10.4,79,30.67,12.0,NE,2.3,-,N/A,,Overcast,50,2012-12-02 06:00:00
3:00 AM,17.6,5.0,58,30.67,15.0,NNE,3.5,-,N/A,,Overcast,30,2012-12-02 07:00:00
4:00 AM,19.4,14.0,80,30.65,15.0,NE,4.6,-,N/A,,Overcast,40,2012-12-02 08:00:00
5:00 AM,23.0,14.0,68,30.62,15.0,North,4.6,-,N/A,,Overcast,10,2012-12-02 09:00:00
6:00 AM,24.8,15.8,69,30.61,15.0,North,3.5,-,N/A,,Overcast,360,2012-12-02 10:00:00
7:00 AM,24.8,19.4,80,30.59,15.0,NNE,4.6,-,N/A,,Overcast,30,2012-12-02 11:00:00
8:00 AM,26,19,65,30.59,15,NNE,4.6,,,,Overcast,20,2012-12-02 12:00:00
8:00 AM,26.6,19.4,74,30.59,15.0,North,5.8,-,N/A,,Overcast,10,2012-12-02 12:00:00
9:00 AM,32.0,23.0,69,30.57,15.0,SE,8.1,17.3,N/A,,Overcast,130,2012-12-02 13:00:00
10:00 AM,33.8,28.4,81,30.55,15.0,SE,6.9,-,N/A,,Overcast,140,2012-12-02 14:00:00
11:00 AM,35.6,24.8,65,30.53,15.0,SE,4.6,-,N/A,,Overcast,130,2012-12-02 15:00:00
11:25 AM,-9999,-9999,N/A,-9999,15.0,South,5.8,-,N/A,Rain,Light Rain Showers,180,2012-12-02 15:25:00
12:00 PM,37.4,26.6,65,30.49,15.0,SSE,8.1,-,N/A,Rain-Snow,Light Rain Showers,160,2012-12-02 16:00:00
12:08 PM,-9999,-9999,N/A,-9999,15.0,SSE,6.9,-,N/A,,Overcast,160,2012-12-02 16:08:00
1:00 PM,39.2,28.4,65,30.45,15.0,SSW,4.6,-,N/A,,Overcast,200,2012-12-02 17:00:00
2:00 PM,40,31,59,30.43,15,SSE,12.7,,,,Partly Cloudy,160,2012-12-02 18:00:00
2:00 PM,39.2,30.2,70,30.42,15.0,SSE,10.4,24.2,N/A,,Overcast,160,2012-12-02 18:00:00
3:00 PM,41.0,33.8,76,30.37,15.0,South,10.4,19.6,N/A,,Overcast,170,2012-12-02 19:00:00
3:15 PM,-9999,-9999,N/A,-9999,12.0,South,9.2,-,N/A,Rain,Light Rain Showers,170,2012-12-02 19:15:00
4:00 PM,41.0,35.6,81,30.34,12.0,South,13.8,19.6,N/A,Rain,Light Rain Showers,170,2012-12-02 20:00:00
4:37 PM,-9999,-9999,N/A,-9999,12.0,SSW,8.1,-,N/A,,Overcast,200,2012-12-02 20:37:00
4:49 PM,-9999,-9999,N/A,-9999,12.0,South,4.6,-,N/A,Rain,Light Rain Showers,190,2012-12-02 20:49:00
5:00 PM,41.0,37.4,87,30.32,12.0,SSW,4.6,-,N/A,Rain,Light Rain Showers,200,2012-12-02 21:00:00
5:20 PM,-9999,-9999,N/A,-9999,12.0,South,16.1,23.0,N/A,Rain,Light Rain Showers,170,2012-12-02 21:20:00
6:00 PM,42.8,39.2,87,30.29,12.0,South,8.1,17.3,N/A,Rain,Light Rain Showers,190,2012-12-02 22:00:00
6:40 PM,-9999,-9999,N/A,-9999,12.0,SSW,4.6,-,N/A,Rain,Light Rain Showers,200,2012-12-02 22:40:00
7:00 PM,42.8,39.2,87,30.27,12.0,SSW,4.6,-,N/A,Rain,Light Rain Showers,200,2012-12-02 23:00:00
7:16 PM,-9999,-9999,N/A,-9999,12.0,SSW,5.8,-,N/A,Rain,Light Rain Showers,210,2012-12-02 23:16:00
7:50 PM,-9999,-9999,N/A,-9999,12.0,South,11.5,18.4,N/A,,Light Drizzle,170,2012-12-02 23:50:00
8:00 PM,44,41,84,30.23,12,South,12.7,,,Rain,Light Drizzle,170,2012-12-03 00:00:00
8:00 PM,44.6,41.0,87,30.23,12.0,SSE,13.8,21.9,N/A,,Light Drizzle,160,2012-12-03 00:00:00
9:00 PM,44.6,41.0,87,30.19,12.0,SSE,19.6,27.6,N/A,,Light Drizzle,160,2012-12-03 01:00:00
9:45 PM,-9999,-9999,N/A,-9999,12.0,SSE,17.3,28.8,N/A,Rain,Light Rain Showers,150,2012-12-03 01:45:00
10:00 PM,44.6,42.8,93,30.16,10.0,SSE,16.1,25.3,N/A,Rain,Light Rain Showers,160,2012-12-03 02:00:00
11:00 PM,46.4,44.6,93,30.11,6.0,SSE,17.3,24.2,N/A,Rain,Light Rain Showers,160,2012-12-03 03:00:00